PWSweather.com
Personal Weather Stations
Station Observations
KKYBOWLI8
South Glen Gables Rich Pond, Bowling Green, KY 42101

South Glen Gables Rich PondBowling Green, KY 42101

Lat: 36.89362, Lon: -86.5232

Elevation: 577

Station Type: Davis Vantage Vue

Latest ConditionsUpdated 6:00:00 PM CDT Wednesday, Oct 16, 2019
Currently Today's Max Today's Min Today's Average
Temperature 55.5°F13.1°C 65.3°F18.5°C 49.0°F9.4°C 56.5°F13.6°C
Dew Point 47.0°F8.3°C 65.3°F18.5°C 46.8°F8.2°C 51.8°F11.0°C
Winds 2.0 mph W3.2 kmh W 5.8 mph -9.3 kmh - - 2.5 mph 4.0 kmh
Wind Gusts 8.0 mph12.9 kmh 22.0 mph35.4 kmh - -
Humidity 73% 100% 65% 85%
Pressure 30.06 in1017.9 mb 30.06 in1017.9 mb 29.80 in1009.1 mb -
Precipitation - 1.17 in29.7 mm - -
Hour Temp Dew Point Humidity Winds Wind Gusts Pressure Precip Precip Rate Daily Precip Total
06:00 PM 55.5°F13.1°C 47.0°F8.3°C 73% 2.0 mph W3.2 kmh W 8.0 mph12.9 kmh 30.06 in1017.9 mb 0.00 in0.0 mm 0.00 in0.0 mm 1.17 in29.7 mm
05:50 PM 56.0°F13.3°C 47.1°F8.4°C 72% 2.3 mph W3.7 kmh W 6.0 mph9.7 kmh 30.05 in1017.6 mb 0.00 in0.0 mm 0.00 in0.0 mm 1.17 in29.7 mm
05:40 PM 56.3°F13.5°C 47.0°F8.3°C 71% 2.0 mph W3.2 kmh W 7.0 mph11.3 kmh 30.05 in1017.6 mb 0.00 in0.0 mm 0.00 in0.0 mm 1.17 in29.7 mm
05:30 PM 56.5°F13.6°C 46.8°F8.2°C 70% 2.2 mph W3.5 kmh W 7.0 mph11.3 kmh 30.04 in1017.3 mb 0.00 in0.0 mm 0.00 in0.0 mm 1.17 in29.7 mm
05:20 PM 57.0°F13.9°C 47.3°F8.5°C 70% 2.7 mph WNW4.3 kmh WNW 7.0 mph11.3 kmh 30.04 in1017.3 mb 0.00 in0.0 mm 0.00 in0.0 mm 1.17 in29.7 mm
05:10 PM 57.2°F14.0°C 47.1°F8.4°C 69% 2.9 mph W4.7 kmh W 6.0 mph9.7 kmh 30.04 in1017.3 mb 0.00 in0.0 mm 0.00 in0.0 mm 1.17 in29.7 mm
05:00 PM 57.5°F14.2°C 47.4°F8.6°C 69% 3.2 mph W5.1 kmh W 7.0 mph11.3 kmh 30.04 in1017.3 mb 0.00 in0.0 mm 0.00 in0.0 mm 1.17 in29.7 mm
04:50 PM 57.9°F14.4°C 47.4°F8.6°C 68% 3.2 mph W5.1 kmh W 9.0 mph14.5 kmh 30.04 in1017.3 mb 0.00 in0.0 mm 0.00 in0.0 mm 1.17 in29.7 mm
04:40 PM 58.3°F14.6°C 47.8°F8.8°C 68% 3.5 mph W5.6 kmh W 7.0 mph11.3 kmh 30.03 in1016.9 mb 0.00 in0.0 mm 0.00 in0.0 mm 1.17 in29.7 mm
04:30 PM 58.3°F14.6°C 47.4°F8.6°C 67% 3.7 mph W6.0 kmh W 11.0 mph17.7 kmh 30.03 in1016.9 mb 0.00 in0.0 mm 0.00 in0.0 mm 1.17 in29.7 mm
04:20 PM 58.4°F14.7°C 47.9°F8.8°C 68% 4.0 mph W6.4 kmh W 11.0 mph17.7 kmh 30.02 in1016.6 mb 0.00 in0.0 mm 0.00 in0.0 mm 1.17 in29.7 mm
04:10 PM 59.0°F15.0°C 48.1°F8.9°C 67% 4.0 mph NW6.4 kmh NW 9.0 mph14.5 kmh 30.02 in1016.6 mb 0.00 in0.0 mm 0.00 in0.0 mm 1.17 in29.7 mm
04:00 PM 59.2°F15.1°C 47.4°F8.6°C 65% 4.0 mph WNW6.4 kmh WNW 13.0 mph20.9 kmh 30.02 in1016.6 mb 0.00 in0.0 mm 0.00 in0.0 mm 1.17 in29.7 mm
03:50 PM 58.9°F14.9°C 48.0°F8.9°C 67% 3.9 mph W6.3 kmh W 11.0 mph17.7 kmh 30.02 in1016.6 mb 0.00 in0.0 mm 0.00 in0.0 mm 1.17 in29.7 mm
03:40 PM 59.1°F15.1°C 48.1°F8.9°C 67% 3.0 mph W4.8 kmh W 10.0 mph16.1 kmh 30.02 in1016.6 mb 0.00 in0.0 mm 0.00 in0.0 mm 1.17 in29.7 mm
03:30 PM 59.4°F15.2°C 48.4°F9.1°C 67% 3.0 mph W4.8 kmh W 7.0 mph11.3 kmh 30.02 in1016.6 mb 0.00 in0.0 mm 0.00 in0.0 mm 1.17 in29.7 mm
03:20 PM 58.6°F14.8°C 48.1°F8.9°C 68% 3.0 mph W4.8 kmh W 8.0 mph12.9 kmh 30.01 in1016.3 mb 0.00 in0.0 mm 0.00 in0.0 mm 1.17 in29.7 mm
03:10 PM 58.6°F14.8°C 48.1°F8.9°C 68% 3.0 mph W4.8 kmh W 8.0 mph12.9 kmh 30.02 in1016.6 mb 0.00 in0.0 mm 0.00 in0.0 mm 1.17 in29.7 mm
03:00 PM 59.2°F15.1°C 48.6°F9.2°C 68% 3.3 mph W5.3 kmh W 8.0 mph12.9 kmh 30.01 in1016.3 mb 0.00 in0.0 mm 0.00 in0.0 mm 1.17 in29.7 mm
02:50 PM 59.0°F15.0°C 48.1°F8.9°C 67% 3.2 mph W5.1 kmh W 8.0 mph12.9 kmh 30.00 in1015.9 mb 0.00 in0.0 mm 0.00 in0.0 mm 1.17 in29.7 mm
02:40 PM 59.2°F15.1°C 49.0°F9.4°C 69% 3.4 mph W5.5 kmh W 11.0 mph17.7 kmh 30.00 in1015.9 mb 0.00 in0.0 mm 0.00 in0.0 mm 1.17 in29.7 mm
02:30 PM 58.7°F14.8°C 48.6°F9.2°C 69% 4.1 mph W6.6 kmh W 11.0 mph17.7 kmh 30.00 in1015.9 mb 0.00 in0.0 mm 0.00 in0.0 mm 1.17 in29.7 mm
02:20 PM 58.8°F14.9°C 48.3°F9.1°C 68% 3.6 mph W5.8 kmh W 10.0 mph16.1 kmh 30.00 in1015.9 mb 0.00 in0.0 mm 0.00 in0.0 mm 1.17 in29.7 mm
02:10 PM 59.2°F15.1°C 48.6°F9.2°C 68% 3.1 mph W5.0 kmh W 7.0 mph11.3 kmh 30.00 in1015.9 mb 0.00 in0.0 mm 0.00 in0.0 mm 1.17 in29.7 mm
02:00 PM 58.3°F14.6°C 47.8°F8.8°C 68% 3.2 mph W5.1 kmh W 8.0 mph12.9 kmh 30.00 in1015.9 mb 0.00 in0.0 mm 0.00 in0.0 mm 1.17 in29.7 mm
01:50 PM 58.4°F14.7°C 48.3°F9.1°C 69% 3.0 mph W4.8 kmh W 9.0 mph14.5 kmh 30.00 in1015.9 mb 0.00 in0.0 mm 0.00 in0.0 mm 1.17 in29.7 mm
01:40 PM 58.5°F14.7°C 48.7°F9.3°C 70% 3.3 mph WNW5.3 kmh WNW 11.0 mph17.7 kmh 29.99 in1015.6 mb 0.00 in0.0 mm 0.00 in0.0 mm 1.17 in29.7 mm
01:30 PM 58.1°F14.5°C 48.0°F8.9°C 69% 3.7 mph W6.0 kmh W 11.0 mph17.7 kmh 30.00 in1015.9 mb 0.00 in0.0 mm 0.00 in0.0 mm 1.17 in29.7 mm
01:20 PM 58.4°F14.7°C 48.3°F9.1°C 69% 4.0 mph W6.4 kmh W 9.0 mph14.5 kmh 30.00 in1015.9 mb 0.00 in0.0 mm 0.00 in0.0 mm 1.17 in29.7 mm
01:10 PM 58.2°F14.6°C 47.7°F8.7°C 68% 2.6 mph W4.2 kmh W 11.0 mph17.7 kmh 30.00 in1015.9 mb 0.00 in0.0 mm 0.00 in0.0 mm 1.17 in29.7 mm
01:00 PM 57.8°F14.3°C 48.5°F9.2°C 71% 2.9 mph NW4.7 kmh NW 7.0 mph11.3 kmh 30.00 in1015.9 mb 0.00 in0.0 mm 0.00 in0.0 mm 1.17 in29.7 mm
12:50 PM 57.3°F14.1°C 48.3°F9.1°C 72% 3.2 mph NW5.1 kmh NW 10.0 mph16.1 kmh 30.00 in1015.9 mb 0.00 in0.0 mm 0.00 in0.0 mm 1.17 in29.7 mm
12:40 PM 57.0°F13.9°C 47.3°F8.5°C 70% 3.0 mph NW4.8 kmh NW 8.0 mph12.9 kmh 30.00 in1015.9 mb 0.00 in0.0 mm 0.00 in0.0 mm 1.17 in29.7 mm
12:30 PM 56.9°F13.8°C 48.0°F8.9°C 72% 3.0 mph W4.8 kmh W 7.0 mph11.3 kmh 30.01 in1016.3 mb 0.00 in0.0 mm 0.00 in0.0 mm 1.17 in29.7 mm
12:20 PM 56.6°F13.7°C 48.0°F8.9°C 73% 3.5 mph W5.6 kmh W 7.0 mph11.3 kmh 30.02 in1016.6 mb 0.00 in0.0 mm 0.00 in0.0 mm 1.17 in29.7 mm
12:10 PM 56.3°F13.5°C 47.4°F8.6°C 72% 2.4 mph NW3.9 kmh NW 9.0 mph14.5 kmh 30.02 in1016.6 mb 0.00 in0.0 mm 0.00 in0.0 mm 1.17 in29.7 mm
12:00 PM 56.3°F13.5°C 48.8°F9.3°C 76% 3.0 mph W4.8 kmh W 8.0 mph12.9 kmh 30.02 in1016.6 mb 0.00 in0.0 mm 0.00 in0.0 mm 1.17 in29.7 mm
11:50 AM 56.3°F13.5°C 48.5°F9.2°C 75% 2.6 mph W4.2 kmh W 7.0 mph11.3 kmh 30.02 in1016.6 mb 0.00 in0.0 mm 0.00 in0.0 mm 1.17 in29.7 mm
11:40 AM 55.7°F13.2°C 48.6°F9.2°C 77% 3.0 mph WNW4.8 kmh WNW 10.0 mph16.1 kmh 30.02 in1016.6 mb 0.00 in0.0 mm 0.00 in0.0 mm 1.17 in29.7 mm
11:30 AM 55.4°F13.0°C 48.7°F9.3°C 78% 2.9 mph W4.7 kmh W 8.0 mph12.9 kmh 30.02 in1016.6 mb 0.00 in0.0 mm 0.00 in0.0 mm 1.17 in29.7 mm
11:20 AM 55.3°F12.9°C 48.6°F9.2°C 78% 3.6 mph WNW5.8 kmh WNW 9.0 mph14.5 kmh 30.02 in1016.6 mb 0.00 in0.0 mm 0.00 in0.0 mm 1.17 in29.7 mm
11:10 AM 55.0°F12.8°C 48.9°F9.4°C 80% 4.0 mph N6.4 kmh N 10.0 mph16.1 kmh 30.02 in1016.6 mb 0.00 in0.0 mm 0.00 in0.0 mm 1.17 in29.7 mm
11:00 AM 54.5°F12.5°C 47.4°F8.6°C 77% 4.0 mph W6.4 kmh W 10.0 mph16.1 kmh 30.02 in1016.6 mb 0.00 in0.0 mm 0.00 in0.0 mm 1.17 in29.7 mm
10:50 AM 54.4°F12.4°C 48.7°F9.3°C 81% 3.2 mph W5.1 kmh W 8.0 mph12.9 kmh 30.02 in1016.6 mb 0.00 in0.0 mm 0.00 in0.0 mm 1.17 in29.7 mm
10:40 AM 54.2°F12.3°C 48.5°F9.2°C 81% 3.3 mph WNW5.3 kmh WNW 9.0 mph14.5 kmh 30.02 in1016.6 mb 0.00 in0.0 mm 0.00 in0.0 mm 1.17 in29.7 mm
10:30 AM 53.9°F12.2°C 48.5°F9.2°C 82% 3.0 mph W4.8 kmh W 10.0 mph16.1 kmh 30.02 in1016.6 mb 0.00 in0.0 mm 0.00 in0.0 mm 1.17 in29.7 mm
10:20 AM 54.1°F12.3°C 48.7°F9.3°C 82% 3.0 mph WNW4.8 kmh WNW 10.0 mph16.1 kmh 30.02 in1016.6 mb 0.00 in0.0 mm 0.00 in0.0 mm 1.17 in29.7 mm
10:10 AM 53.9°F12.2°C 49.5°F9.7°C 85% 3.0 mph N4.8 kmh N 9.0 mph14.5 kmh 30.01 in1016.3 mb 0.00 in0.0 mm 0.00 in0.0 mm 1.17 in29.7 mm
10:00 AM 53.3°F11.8°C 49.2°F9.6°C 86% 3.0 mph WNW4.8 kmh WNW 7.0 mph11.3 kmh 30.01 in1016.3 mb 0.00 in0.0 mm 0.00 in0.0 mm 1.17 in29.7 mm
09:50 AM 53.1°F11.7°C 49.0°F9.4°C 86% 3.0 mph WNW4.8 kmh WNW 11.0 mph17.7 kmh 30.00 in1015.9 mb 0.00 in0.0 mm 0.00 in0.0 mm 1.17 in29.7 mm
09:40 AM 52.9°F11.6°C 48.8°F9.3°C 86% 3.0 mph W4.8 kmh W 8.0 mph12.9 kmh 30.00 in1015.9 mb 0.00 in0.0 mm 0.00 in0.0 mm 1.17 in29.7 mm
09:30 AM 52.4°F11.3°C 48.6°F9.2°C 87% 3.3 mph N5.3 kmh N 11.0 mph17.7 kmh 30.00 in1015.9 mb 0.00 in0.0 mm 0.00 in0.0 mm 1.17 in29.7 mm
09:20 AM 51.9°F11.1°C 48.8°F9.3°C 89% 3.4 mph WNW5.5 kmh WNW 8.0 mph12.9 kmh 29.99 in1015.6 mb 0.00 in0.0 mm 0.00 in0.0 mm 1.17 in29.7 mm
09:10 AM 51.5°F10.8°C 48.4°F9.1°C 89% 3.0 mph W4.8 kmh W 6.0 mph9.7 kmh 29.99 in1015.6 mb 0.00 in0.0 mm 0.00 in0.0 mm 1.17 in29.7 mm
09:00 AM 50.9°F10.5°C 48.1°F8.9°C 90% 3.0 mph W4.8 kmh W 7.0 mph11.3 kmh 29.99 in1015.6 mb 0.00 in0.0 mm 0.00 in0.0 mm 1.17 in29.7 mm
08:50 AM 50.2°F10.1°C 47.7°F8.7°C 91% 3.0 mph WNW4.8 kmh WNW 8.0 mph12.9 kmh 29.98 in1015.2 mb 0.00 in0.0 mm 0.00 in0.0 mm 1.17 in29.7 mm
08:40 AM 49.8°F9.9°C 47.3°F8.5°C 91% 2.4 mph W3.9 kmh W 11.0 mph17.7 kmh 29.98 in1015.2 mb 0.00 in0.0 mm 0.00 in0.0 mm 1.17 in29.7 mm
08:30 AM 49.5°F9.7°C 47.3°F8.5°C 92% 2.9 mph W4.7 kmh W 8.0 mph12.9 kmh 29.97 in1014.9 mb 0.00 in0.0 mm 0.00 in0.0 mm 1.17 in29.7 mm
08:20 AM 49.2°F9.6°C 47.3°F8.5°C 93% 2.5 mph W4.0 kmh W 11.0 mph17.7 kmh 29.97 in1014.9 mb 0.00 in0.0 mm 0.00 in0.0 mm 1.17 in29.7 mm
08:10 AM 49.2°F9.6°C 47.5°F8.6°C 94% 2.0 mph WNW3.2 kmh WNW 6.0 mph9.7 kmh 29.96 in1014.6 mb 0.00 in0.0 mm 0.00 in0.0 mm 1.17 in29.7 mm
08:00 AM 49.1°F9.5°C 47.7°F8.7°C 95% 2.0 mph W3.2 kmh W 6.0 mph9.7 kmh 29.96 in1014.6 mb 0.00 in0.0 mm 0.00 in0.0 mm 1.17 in29.7 mm
07:50 AM 49.0°F9.4°C 47.6°F8.7°C 95% 2.3 mph W3.7 kmh W 6.0 mph9.7 kmh 29.95 in1014.2 mb 0.00 in0.0 mm 0.00 in0.0 mm 1.17 in29.7 mm
07:40 AM 49.1°F9.5°C 47.4°F8.6°C 94% 3.0 mph W4.8 kmh W 6.0 mph9.7 kmh 29.95 in1014.2 mb 0.00 in0.0 mm 0.00 in0.0 mm 1.17 in29.7 mm
07:30 AM 49.7°F9.8°C 48.0°F8.9°C 94% 2.0 mph W3.2 kmh W 6.0 mph9.7 kmh 29.95 in1014.2 mb 0.00 in0.0 mm 0.00 in0.0 mm 1.17 in29.7 mm
07:20 AM 50.4°F10.2°C 49.0°F9.4°C 95% 1.3 mph WNW2.1 kmh WNW 5.0 mph8.0 kmh 29.94 in1013.9 mb 0.00 in0.0 mm 0.00 in0.0 mm 1.17 in29.7 mm
07:10 AM 51.0°F10.6°C 49.6°F9.8°C 95% 1.0 mph W1.6 kmh W 2.0 mph3.2 kmh 29.93 in1013.5 mb 0.00 in0.0 mm 0.00 in0.0 mm 1.17 in29.7 mm
07:00 AM 51.7°F10.9°C 50.0°F10.0°C 94% 1.8 mph W2.9 kmh W 4.0 mph6.4 kmh 29.93 in1013.5 mb 0.00 in0.0 mm 0.00 in0.0 mm 1.17 in29.7 mm
06:50 AM 52.4°F11.3°C 50.7°F10.4°C 94% 2.0 mph W3.2 kmh W 5.0 mph8.0 kmh 29.92 in1013.2 mb 0.00 in0.0 mm 0.00 in0.0 mm 1.17 in29.7 mm
06:40 AM 52.7°F11.5°C 51.3°F10.7°C 95% 1.4 mph W2.3 kmh W 7.0 mph11.3 kmh 29.92 in1013.2 mb 0.00 in0.0 mm 0.00 in0.0 mm 1.17 in29.7 mm
06:30 AM 52.6°F11.4°C 52.1°F11.2°C 98% 1.0 mph W1.6 kmh W 4.0 mph6.4 kmh 29.91 in1012.9 mb 0.00 in0.0 mm 0.00 in0.0 mm 1.17 in29.7 mm
06:20 AM 52.6°F11.4°C 52.1°F11.2°C 98% 1.0 mph W1.6 kmh W 2.0 mph3.2 kmh 29.91 in1012.9 mb 0.00 in0.0 mm 0.00 in0.0 mm 1.17 in29.7 mm
06:10 AM 52.7°F11.5°C 51.9°F11.1°C 97% 1.0 mph WNW1.6 kmh WNW 3.0 mph4.8 kmh 29.90 in1012.5 mb 0.00 in0.0 mm 0.00 in0.0 mm 1.17 in29.7 mm
06:00 AM 52.8°F11.6°C 52.0°F11.1°C 97% 1.8 mph NW2.9 kmh NW 4.0 mph6.4 kmh 29.90 in1012.5 mb 0.00 in0.0 mm 0.00 in0.0 mm 1.17 in29.7 mm
05:50 AM 52.9°F11.6°C 51.8°F11.0°C 96% 2.0 mph N3.2 kmh N 7.0 mph11.3 kmh 29.89 in1012.2 mb 0.00 in0.0 mm 0.00 in0.0 mm 1.17 in29.7 mm
05:40 AM 53.1°F11.7°C 51.7°F10.9°C 95% 2.6 mph NW4.2 kmh NW 8.0 mph12.9 kmh 29.89 in1012.2 mb 0.00 in0.0 mm 0.00 in0.0 mm 1.17 in29.7 mm
05:30 AM 53.2°F11.8°C 51.8°F11.0°C 95% 2.0 mph WNW3.2 kmh WNW 7.0 mph11.3 kmh 29.89 in1012.2 mb 0.00 in0.0 mm 0.00 in0.0 mm 1.17 in29.7 mm
05:20 AM 53.2°F11.8°C 51.8°F11.0°C 95% 2.0 mph W3.2 kmh W 7.0 mph11.3 kmh 29.89 in1012.2 mb 0.00 in0.0 mm 0.00 in0.0 mm 1.17 in29.7 mm
05:10 AM 53.1°F11.7°C 52.0°F11.1°C 96% 2.2 mph N3.5 kmh N 7.0 mph11.3 kmh 29.88 in1011.9 mb 0.00 in0.0 mm 0.00 in0.0 mm 1.17 in29.7 mm
05:00 AM 53.1°F11.7°C 52.0°F11.1°C 96% 2.2 mph NNW3.5 kmh NNW 6.0 mph9.7 kmh 29.88 in1011.9 mb 0.00 in0.0 mm 0.00 in0.0 mm 1.17 in29.7 mm
04:50 AM 53.1°F11.7°C 52.3°F11.3°C 97% 3.6 mph N5.8 kmh N 9.0 mph14.5 kmh 29.88 in1011.9 mb 0.00 in0.0 mm 0.00 in0.0 mm 1.17 in29.7 mm
04:40 AM 53.1°F11.7°C 52.3°F11.3°C 97% 3.8 mph N6.1 kmh N 10.0 mph16.1 kmh 29.86 in1011.2 mb 0.00 in0.0 mm 0.00 in0.0 mm 1.17 in29.7 mm
04:30 AM 53.1°F11.7°C 52.6°F11.4°C 98% 4.8 mph NNW7.7 kmh NNW 10.0 mph16.1 kmh 29.86 in1011.2 mb 0.00 in0.0 mm 0.00 in0.0 mm 1.17 in29.7 mm
04:20 AM 53.3°F11.8°C 52.5°F11.4°C 97% 4.8 mph NNW7.7 kmh NNW 15.0 mph24.1 kmh 29.85 in1010.8 mb 0.01 in0.3 mm 0.00 in0.0 mm 1.17 in29.7 mm
04:10 AM 53.6°F12.0°C 53.0°F11.7°C 98% 3.8 mph W6.1 kmh W 14.0 mph22.5 kmh 29.86 in1011.2 mb 0.02 in0.5 mm 0.00 in0.0 mm 1.17 in29.7 mm
04:00 AM 53.8°F12.1°C 53.2°F11.8°C 98% 4.4 mph W7.1 kmh W 14.0 mph22.5 kmh 29.86 in1011.2 mb 0.03 in0.8 mm 0.00 in0.0 mm 1.17 in29.7 mm
03:50 AM 54.1°F12.3°C 53.3°F11.8°C 97% 5.6 mph NW9.0 kmh NW 16.0 mph25.7 kmh 29.85 in1010.8 mb 0.04 in1.0 mm 0.00 in0.0 mm 1.17 in29.7 mm
03:40 AM 54.9°F12.7°C 53.8°F12.1°C 96% 5.8 mph W9.3 kmh W 22.0 mph35.4 kmh 29.85 in1010.8 mb 0.07 in1.8 mm 0.00 in0.0 mm 1.17 in29.7 mm
03:30 AM 58.8°F14.9°C 56.8°F13.8°C 93% 1.3 mph W2.1 kmh W 22.0 mph35.4 kmh 29.84 in1010.5 mb 0.10 in2.5 mm 0.00 in0.0 mm 1.17 in29.7 mm
03:20 AM 61.8°F16.6°C 61.8°F16.6°C 100% Calm Calm 2.0 mph3.2 kmh 29.81 in1009.5 mb 0.13 in3.3 mm 0.00 in0.0 mm 1.16 in29.5 mm
03:10 AM 61.8°F16.6°C 61.8°F16.6°C 100% Calm Calm -- 29.81 in1009.5 mb 0.14 in3.6 mm 0.00 in0.0 mm 1.15 in29.2 mm
03:00 AM 61.8°F16.6°C 61.8°F16.6°C 100% Calm Calm 1.0 mph1.6 kmh 29.80 in1009.1 mb 0.21 in5.3 mm 0.00 in0.0 mm 1.14 in29.0 mm
02:50 AM 61.9°F16.6°C 61.9°F16.6°C 100% 0.6 mph W1.0 kmh W 2.0 mph3.2 kmh 29.81 in1009.5 mb 0.32 in8.1 mm 0.00 in0.0 mm 1.12 in28.4 mm
02:40 AM 61.8°F16.6°C 61.8°F16.6°C 100% Calm Calm 2.0 mph3.2 kmh 29.82 in1009.8 mb 0.38 in9.7 mm 0.00 in0.0 mm 1.10 in27.9 mm
02:30 AM 61.7°F16.5°C 61.7°F16.5°C 100% Calm Calm 1.0 mph1.6 kmh 29.82 in1009.8 mb 0.45 in11.4 mm 0.06 in1.5 mm 1.07 in27.2 mm
02:20 AM 61.7°F16.5°C 61.7°F16.5°C 100% Calm Calm 1.0 mph1.6 kmh 29.82 in1009.8 mb 0.44 in11.2 mm 0.00 in0.0 mm 1.03 in26.2 mm
02:10 AM 61.6°F16.4°C 61.6°F16.4°C 100% Calm Calm -- 29.82 in1009.8 mb 0.46 in11.7 mm 0.00 in0.0 mm 1.00 in25.4 mm
02:00 AM 61.7°F16.5°C 61.7°F16.5°C 100% Calm Calm 1.0 mph1.6 kmh 29.83 in1010.2 mb 0.52 in13.2 mm 0.00 in0.0 mm 0.93 in23.6 mm
01:50 AM 61.8°F16.6°C 61.8°F16.6°C 100% 0.5 mph WNW0.8 kmh WNW 2.0 mph3.2 kmh 29.84 in1010.5 mb 0.55 in14.0 mm 0.00 in0.0 mm 0.80 in20.3 mm
01:40 AM 62.0°F16.7°C 62.0°F16.7°C 100% 1.6 mph W2.6 kmh W 4.0 mph6.4 kmh 29.84 in1010.5 mb 0.62 in15.7 mm 0.24 in6.1 mm 0.72 in18.3 mm
01:30 AM 62.2°F16.8°C 62.2°F16.8°C 100% 2.0 mph W3.2 kmh W 5.0 mph8.0 kmh 29.84 in1010.5 mb 0.58 in14.7 mm 0.06 in1.5 mm 0.62 in15.7 mm
01:20 AM 62.4°F16.9°C 62.4°F16.9°C 100% 3.5 mph W5.6 kmh W 6.0 mph9.7 kmh 29.84 in1010.5 mb 0.57 in14.5 mm 0.24 in6.1 mm 0.59 in15.0 mm
01:10 AM 62.8°F17.1°C 62.8°F17.1°C 100% 3.1 mph WNW5.0 kmh WNW 9.0 mph14.5 kmh 29.84 in1010.5 mb 0.53 in13.5 mm 0.78 in19.8 mm 0.54 in13.7 mm
01:00 AM 63.9°F17.7°C 63.9°F17.7°C 100% 1.6 mph W2.6 kmh W 7.0 mph11.3 kmh 29.84 in1010.5 mb 0.40 in10.2 mm 0.13 in3.3 mm 0.40 in10.2 mm
12:50 AM 64.4°F18.0°C 64.4°F18.0°C 100% 1.0 mph WSW1.6 kmh WSW 2.0 mph3.2 kmh 29.85 in1010.8 mb 0.29 in7.4 mm 0.78 in19.8 mm 0.25 in6.4 mm
12:40 AM 64.7°F18.2°C 64.7°F18.2°C 100% 1.0 mph SSW1.6 kmh SSW 2.0 mph3.2 kmh 29.84 in1010.5 mb 0.16 in4.1 mm 0.00 in0.0 mm 0.08 in2.0 mm
12:30 AM 64.9°F18.3°C 64.9°F18.3°C 100% 0.1 mph SW0.2 kmh SW 4.0 mph6.4 kmh 29.84 in1010.5 mb 0.16 in4.1 mm 0.06 in1.5 mm 0.04 in1.0 mm
12:20 AM 65.1°F18.4°C 65.1°F18.4°C 100% 0.5 mph SSW0.8 kmh SSW 3.0 mph4.8 kmh 29.84 in1010.5 mb 0.15 in3.8 mm 0.06 in1.5 mm 0.02 in0.5 mm
12:10 AM 65.2°F18.4°C 65.2°F18.4°C 100% Calm Calm 2.0 mph3.2 kmh 29.85 in1010.8 mb 0.14 in3.6 mm 0.06 in1.5 mm 0.01 in0.3 mm
12:00 AM 65.3°F18.5°C 65.3°F18.5°C 100% 0.9 mph SW1.4 kmh SW 3.0 mph4.8 kmh 29.85 in1010.8 mb 0.13 in3.3 mm 0.00 in0.0 mm 0.13 in3.3 mm